Sovereign — 9HUE9 — position and weather

sailwx.info

Track history (hours):
 
Tides and Currents Weather Stations Pressure Air Temp Water Temp Dewpoint Dewpoint Depression Visibility Wind Speed Wind Dir Waves Ship Positions

Sovereign

Last reported at 2016-Aug-27 12:22 UTC. Time now 2016-Aug-27 13:24 UTC.
Position N 41°22' E 002°11'.

Length 268 m; draft 7.7 m.

Type: Passenger vessel. MMSI: 249539000.

Date/timePositionNaut miles runAvg speedWind from/ knotsBaromVisibWave heightAir tempDewpointWater temp
2016-Aug-27 12:22N 41°22' E 002°11'0 0.0
2016-Aug-27 11:22N 41°22' E 002°11'0 0.0
2016-Aug-27 10:22N 41°22' E 002°11'0 0.0
2016-Aug-27 07:16N 41°22' E 002°11'1 0.6
2016-Aug-27 06:18N 41°21' E 002°10'2011.3
2016-Aug-27 04:33N 41°15' E 002°35'1715.2
2016-Aug-27 03:28N 41°25' E 002°53'1615.5
2016-Aug-27 02:25N 41°34' E 003°11'1616.1
2016-Aug-27 01:27N 41°43' E 003°27'1516.4
2016-Aug-27 00:33N 41°51' E 003°44'1616.5
2016-Aug-26 23:33N 42°01' E 004°02'1716.5
2016-Aug-26 22:33N 42°10' E 004°21'1616.3
2016-Aug-26 21:33N 42°20' E 004°39'2116.4
2016-Aug-26 20:16N 42°32' E 005°02'1716.8
2016-Aug-26 19:15N 42°42' E 005°21'3516.3
2016-Aug-26 17:05N 43°04' E 005°58'4 7.3
2016-Aug-26 16:33N 43°06' E 005°54'0 0.0
2016-Aug-26 15:33N 43°06' E 005°54'0 0.0
2016-Aug-26 14:33N 43°06' E 005°54'0 0.0
2016-Aug-26 13:30N 43°06' E 005°54'0 0.0
2016-Aug-26 12:33N 43°06' E 005°54'0 0.0
2016-Aug-26 11:30N 43°06' E 005°54'0 0.0
2016-Aug-26 10:33N 43°06' E 005°54'0 0.0
2016-Aug-26 09:33N 43°06' E 005°54'0 0.0
2016-Aug-26 08:33N 43°06' E 005°54'0 0.0
2016-Aug-26 07:33N 43°06' E 005°54'2 2.4
2016-Aug-26 06:33N 43°05' E 005°57'7213.9
2016-Aug-26 01:22N 43°00' E 007°35'1315.6
2016-Aug-26 00:33N 43°01' E 007°53'1515.4
2016-Aug-25 23:33N 43°06' E 008°13'1615.7
2016-Aug-25 22:33N 43°12' E 008°33'1615.7
2016-Aug-25 21:33N 43°17' E 008°53'1515.3
2016-Aug-25 20:33N 43°22' E 009°13'1515.1
2016-Aug-25 19:33N 43°28' E 009°32'1515.2
2016-Aug-25 18:33N 43°32' E 009°52'1414.4
2016-Aug-25 17:33N 43°31' E 010°12'4 4.0
2016-Aug-25 16:27N 43°33' E 010°18'0 0.0
2016-Aug-25 15:33N 43°33' E 010°18'0 0.0
2016-Aug-25 14:33N 43°33' E 010°18'0 0.0
2016-Aug-25 13:30N 43°33' E 010°18'0 0.0
2016-Aug-25 12:33N 43°33' E 010°18'0 0.0
2016-Aug-25 11:33N 43°33' E 010°18'0 0.0
2016-Aug-25 10:33N 43°33' E 010°18'0 0.0
2016-Aug-25 09:33N 43°33' E 010°18'0 0.0
2016-Aug-25 08:33N 43°33' E 010°18'0 0.0
2016-Aug-25 07:30N 43°33' E 010°18'0 0.0
2016-Aug-25 06:33N 43°33' E 010°18'4 2.1
2016-Aug-25 04:33N 43°30' E 010°14'7 7.5
2016-Aug-25 03:33N 43°23' E 010°11'1414.5
2016-Aug-25 02:34N 43°09' E 010°06'1414.3
2016-Aug-25 01:33N 42°55' E 010°01'2813.6
2016-Aug-24 23:30N 42°30' E 010°19'201 7.0
2016-Aug-23 18:32N 40°39' E 014°03'1514.8
2016-Aug-23 17:33N 40°49' E 014°17'2 0.9
2016-Aug-23 15:30N 40°50' E 014°15'0 0.0
2016-Aug-23 14:24N 40°50' E 014°15'0 0.0
2016-Aug-23 13:24N 40°50' E 014°15'0 0.0
2016-Aug-23 12:30N 40°50' E 014°15'0 0.0
2016-Aug-23 11:30N 40°50' E 014°15'0 0.0
2016-Aug-23 10:30N 40°50' E 014°15'0 0.0
2016-Aug-23 09:24N 40°50' E 014°15'0 0.0
2016-Aug-23 08:18N 40°50' E 014°15'0 0.0
2016-Aug-23 07:24N 40°50' E 014°15'0 0.5
2016-Aug-23 06:33N 40°50' E 014°16'1111.3
2016-Aug-23 05:33N 40°42' E 014°06'  
2016-Aug-20 21:32N 41°17' E 003°18'1410.7
2016-Aug-20 20:16N 41°17' E 002°60'2111.5
2016-Aug-20 18:28N 41°16' E 002°32'1011.2
2016-Aug-20 17:33N 41°16' E 002°19'8 7.9
2016-Aug-20 16:33N 41°21' E 002°10'1 0.5
2016-Aug-20 15:33N 41°22' E 002°11'0 0.0
2016-Aug-20 14:33N 41°22' E 002°11'0 0.0
2016-Aug-20 13:33N 41°22' E 002°11'0 0.0
2016-Aug-20 12:33N 41°22' E 002°11'0 0.0
2016-Aug-20 11:33N 41°22' E 002°11'0 0.0
2016-Aug-20 10:33N 41°22' E 002°11'0 0.0
2016-Aug-20 09:33N 41°22' E 002°11'0 0.0
2016-Aug-20 08:33N 41°22' E 002°11'0 0.0
2016-Aug-20 07:33N 41°22' E 002°11'0 0.1
2016-Aug-20 06:33N 41°22' E 002°11'6 6.1
2016-Aug-20 05:33N 41°16' E 002°15'1514.8
2016-Aug-20 04:33N 41°16' E 002°34'1616.3
2016-Aug-20 03:33N 41°25' E 002°53'1716.6
2016-Aug-20 02:30N 41°35' E 003°12'1415.1
2016-Aug-20 01:33N 41°43' E 003°28'1515.1
2016-Aug-20 00:32N 41°52' E 003°45'1615.8
2016-Aug-19 23:33N 42°01' E 004°02'1515.5
2016-Aug-19 22:33N 42°09' E 004°19'1515.4
2016-Aug-19 21:33N 42°18' E 004°36'1515.5
2016-Aug-19 20:33N 42°27' E 004°53'3416.4
2016-Aug-19 18:28N 42°47' E 005°31'2613.6
2016-Aug-19 16:34N 43°06' E 005°55'1 0.8
2016-Aug-19 15:31N 43°06' E 005°54'0 0.0
2016-Aug-19 14:31N 43°06' E 005°54'0 0.0
2016-Aug-19 13:31N 43°06' E 005°54'0 0.0
2016-Aug-19 12:31N 43°06' E 005°54'0 0.0
2016-Aug-19 11:31N 43°06' E 005°54'0 0.0
2016-Aug-19 10:31N 43°06' E 005°54'0 0.0
2016-Aug-19 09:25N 43°06' E 005°54'0 0.0
2016-Aug-19 08:31N 43°06' E 005°54'0 0.0
2016-Aug-19 07:31N 43°06' E 005°54'2 2.3
2016-Aug-19 06:33N 43°05' E 005°57'4314.2
2016-Aug-19 03:31N 42°57' E 006°54'1816.8
2016-Aug-19 02:28N 42°59' E 007°18'6314.8
2016-Aug-18 22:11N 43°14' E 008°43'914.2
2016-Aug-18 21:34N 43°17' E 008°54'1514.6
2016-Aug-18 20:34N 43°23' E 009°13'1514.8
2016-Aug-18 19:34N 43°28' E 009°32'1514.8
2016-Aug-18 18:34N 43°31' E 009°52'1514.6
2016-Aug-18 17:34N 43°31' E 010°12'5 4.5
2016-Aug-18 16:32N 43°33' E 010°18'0 0.0
2016-Aug-18 15:32N 43°33' E 010°18'0 0.0
2016-Aug-18 14:32N 43°33' E 010°18'0 0.0
2016-Aug-18 13:32N 43°33' E 010°18'0 0.0
2016-Aug-18 12:32N 43°33' E 010°18'0 0.0
2016-Aug-18 11:32N 43°33' E 010°18'0 0.0
2016-Aug-18 10:29N 43°33' E 010°18'0 0.0
2016-Aug-18 09:29N 43°33' E 010°18'0 0.0
2016-Aug-18 08:29N 43°33' E 010°18'0 0.0
2016-Aug-18 07:32N 43°33' E 010°18'0 0.0
2016-Aug-18 06:32N 43°33' E 010°18'0 0.0
2016-Aug-18 05:32N 43°33' E 010°18'1 1.3
2016-Aug-18 04:33N 43°32' E 010°17'1010.4
2016-Aug-18 03:34N 43°23' E 010°11'1413.8
2016-Aug-18 02:33N 43°10' E 010°05'1414.2
2016-Aug-18 01:33N 42°56' E 009°59'  
Track history (hours):
 
Tides and Currents Weather Stations Pressure Air Temp Water Temp Dewpoint Dewpoint Depression Visibility Wind Speed Wind Dir Waves Ship Positions

Sovereign

Last reported at 2016-Aug-27 12:22 UTC. Time now 2016-Aug-27 13:24 UTC.
Position N 41°22' E 002°11'.

Length 268 m; draft 7.7 m.

Type: Passenger vessel. MMSI: 249539000.

Date/timePositionNaut miles runAvg speedWind from/ knotsBaromVisibWave heightAir tempDewpointWater temp
2016-Aug-27 12:22N 41°22' E 002°11'0 0.0
2016-Aug-27 11:22N 41°22' E 002°11'0 0.0
2016-Aug-27 10:22N 41°22' E 002°11'0 0.0
2016-Aug-27 07:16N 41°22' E 002°11'1 0.6
2016-Aug-27 06:18N 41°21' E 002°10'2011.3
2016-Aug-27 04:33N 41°15' E 002°35'1715.2
2016-Aug-27 03:28N 41°25' E 002°53'1615.5
2016-Aug-27 02:25N 41°34' E 003°11'1616.1
2016-Aug-27 01:27N 41°43' E 003°27'1516.4
2016-Aug-27 00:33N 41°51' E 003°44'1616.5
2016-Aug-26 23:33N 42°01' E 004°02'1716.5
2016-Aug-26 22:33N 42°10' E 004°21'1616.3
2016-Aug-26 21:33N 42°20' E 004°39'2116.4
2016-Aug-26 20:16N 42°32' E 005°02'1716.8
2016-Aug-26 19:15N 42°42' E 005°21'3516.3
2016-Aug-26 17:05N 43°04' E 005°58'4 7.3
2016-Aug-26 16:33N 43°06' E 005°54'0 0.0
2016-Aug-26 15:33N 43°06' E 005°54'0 0.0
2016-Aug-26 14:33N 43°06' E 005°54'0 0.0
2016-Aug-26 13:30N 43°06' E 005°54'0 0.0
2016-Aug-26 12:33N 43°06' E 005°54'0 0.0
2016-Aug-26 11:30N 43°06' E 005°54'0 0.0
2016-Aug-26 10:33N 43°06' E 005°54'0 0.0
2016-Aug-26 09:33N 43°06' E 005°54'0 0.0
2016-Aug-26 08:33N 43°06' E 005°54'0 0.0
2016-Aug-26 07:33N 43°06' E 005°54'2 2.4
2016-Aug-26 06:33N 43°05' E 005°57'7213.9
2016-Aug-26 01:22N 43°00' E 007°35'1315.6
2016-Aug-26 00:33N 43°01' E 007°53'1515.4
2016-Aug-25 23:33N 43°06' E 008°13'1615.7
2016-Aug-25 22:33N 43°12' E 008°33'1615.7
2016-Aug-25 21:33N 43°17' E 008°53'1515.3
2016-Aug-25 20:33N 43°22' E 009°13'1515.1
2016-Aug-25 19:33N 43°28' E 009°32'1515.2
2016-Aug-25 18:33N 43°32' E 009°52'1414.4
2016-Aug-25 17:33N 43°31' E 010°12'4 4.0
2016-Aug-25 16:27N 43°33' E 010°18'0 0.0
2016-Aug-25 15:33N 43°33' E 010°18'0 0.0
2016-Aug-25 14:33N 43°33' E 010°18'0 0.0
2016-Aug-25 13:30N 43°33' E 010°18'0 0.0
2016-Aug-25 12:33N 43°33' E 010°18'0 0.0
2016-Aug-25 11:33N 43°33' E 010°18'0 0.0
2016-Aug-25 10:33N 43°33' E 010°18'0 0.0
2016-Aug-25 09:33N 43°33' E 010°18'0 0.0
2016-Aug-25 08:33N 43°33' E 010°18'0 0.0
2016-Aug-25 07:30N 43°33' E 010°18'0 0.0
2016-Aug-25 06:33N 43°33' E 010°18'4 2.1
2016-Aug-25 04:33N 43°30' E 010°14'7 7.5
2016-Aug-25 03:33N 43°23' E 010°11'1414.5
2016-Aug-25 02:34N 43°09' E 010°06'1414.3
2016-Aug-25 01:33N 42°55' E 010°01'2813.6
2016-Aug-24 23:30N 42°30' E 010°19'201 7.0
2016-Aug-23 18:32N 40°39' E 014°03'1514.8
2016-Aug-23 17:33N 40°49' E 014°17'2 0.9
2016-Aug-23 15:30N 40°50' E 014°15'0 0.0
2016-Aug-23 14:24N 40°50' E 014°15'0 0.0
2016-Aug-23 13:24N 40°50' E 014°15'0 0.0
2016-Aug-23 12:30N 40°50' E 014°15'0 0.0
2016-Aug-23 11:30N 40°50' E 014°15'0 0.0
2016-Aug-23 10:30N 40°50' E 014°15'0 0.0
2016-Aug-23 09:24N 40°50' E 014°15'0 0.0
2016-Aug-23 08:18N 40°50' E 014°15'0 0.0
2016-Aug-23 07:24N 40°50' E 014°15'0 0.5
2016-Aug-23 06:33N 40°50' E 014°16'1111.3
2016-Aug-23 05:33N 40°42' E 014°06'  
2016-Aug-20 21:32N 41°17' E 003°18'1410.7
2016-Aug-20 20:16N 41°17' E 002°60'2111.5
2016-Aug-20 18:28N 41°16' E 002°32'1011.2
2016-Aug-20 17:33N 41°16' E 002°19'8 7.9
2016-Aug-20 16:33N 41°21' E 002°10'1 0.5
2016-Aug-20 15:33N 41°22' E 002°11'0 0.0
2016-Aug-20 14:33N 41°22' E 002°11'0 0.0
2016-Aug-20 13:33N 41°22' E 002°11'0 0.0
2016-Aug-20 12:33N 41°22' E 002°11'0 0.0
2016-Aug-20 11:33N 41°22' E 002°11'0 0.0
2016-Aug-20 10:33N 41°22' E 002°11'0 0.0
2016-Aug-20 09:33N 41°22' E 002°11'0 0.0
2016-Aug-20 08:33N 41°22' E 002°11'0 0.0
2016-Aug-20 07:33N 41°22' E 002°11'0 0.1
2016-Aug-20 06:33N 41°22' E 002°11'6 6.1
2016-Aug-20 05:33N 41°16' E 002°15'1514.8
2016-Aug-20 04:33N 41°16' E 002°34'1616.3
2016-Aug-20 03:33N 41°25' E 002°53'1716.6
2016-Aug-20 02:30N 41°35' E 003°12'1415.1
2016-Aug-20 01:33N 41°43' E 003°28'1515.1
2016-Aug-20 00:32N 41°52' E 003°45'1615.8
2016-Aug-19 23:33N 42°01' E 004°02'1515.5
2016-Aug-19 22:33N 42°09' E 004°19'1515.4
2016-Aug-19 21:33N 42°18' E 004°36'1515.5
2016-Aug-19 20:33N 42°27' E 004°53'3416.4
2016-Aug-19 18:28N 42°47' E 005°31'2613.6
2016-Aug-19 16:34N 43°06' E 005°55'1 0.8
2016-Aug-19 15:31N 43°06' E 005°54'0 0.0
2016-Aug-19 14:31N 43°06' E 005°54'0 0.0
2016-Aug-19 13:31N 43°06' E 005°54'0 0.0
2016-Aug-19 12:31N 43°06' E 005°54'0 0.0
2016-Aug-19 11:31N 43°06' E 005°54'0 0.0
2016-Aug-19 10:31N 43°06' E 005°54'0 0.0
2016-Aug-19 09:25N 43°06' E 005°54'0 0.0
2016-Aug-19 08:31N 43°06' E 005°54'0 0.0
2016-Aug-19 07:31N 43°06' E 005°54'2 2.3
2016-Aug-19 06:33N 43°05' E 005°57'4314.2
2016-Aug-19 03:31N 42°57' E 006°54'1816.8
2016-Aug-19 02:28N 42°59' E 007°18'6314.8
2016-Aug-18 22:11N 43°14' E 008°43'914.2
2016-Aug-18 21:34N 43°17' E 008°54'1514.6
2016-Aug-18 20:34N 43°23' E 009°13'1514.8
2016-Aug-18 19:34N 43°28' E 009°32'1514.8
2016-Aug-18 18:34N 43°31' E 009°52'1514.6
2016-Aug-18 17:34N 43°31' E 010°12'5 4.5
2016-Aug-18 16:32N 43°33' E 010°18'0 0.0
2016-Aug-18 15:32N 43°33' E 010°18'0 0.0
2016-Aug-18 14:32N 43°33' E 010°18'0 0.0
2016-Aug-18 13:32N 43°33' E 010°18'0 0.0
2016-Aug-18 12:32N 43°33' E 010°18'0 0.0
2016-Aug-18 11:32N 43°33' E 010°18'0 0.0
2016-Aug-18 10:29N 43°33' E 010°18'0 0.0
2016-Aug-18 09:29N 43°33' E 010°18'0 0.0
2016-Aug-18 08:29N 43°33' E 010°18'0 0.0
2016-Aug-18 07:32N 43°33' E 010°18'0 0.0
2016-Aug-18 06:32N 43°33' E 010°18'0 0.0
2016-Aug-18 05:32N 43°33' E 010°18'1 1.3
2016-Aug-18 04:33N 43°32' E 010°17'1010.4
2016-Aug-18 03:34N 43°23' E 010°11'1413.8
2016-Aug-18 02:33N 43°10' E 010°05'1414.2
2016-Aug-18 01:33N 42°56' E 009°59'  

Dump ship's entire track history